Time;durP1;ratioP1;P1;durP2;ratioP2;P2;SDS_P1;SDS_P2;PMS_P1;PMS_P2;Temp;Humidity;BMP_temperature;BMP_pressure;BME280_temperature;BME280_humidity;BME280_pressure;Samples;Min_cycle;Max_cycle;Signal;HPM_P1;HPM_P2
2021/12/03 00:00:25;;;;;;;29.75;13.50;;;;;;;2.92;100.00;92938.78;4909409;29;20122;-95
2021/12/03 00:02:51;;;;;;;25.90;12.50;;;;;;;3.21;100.00;92950.47;4924973;29;20433;-95
2021/12/03 00:05:16;;;;;;;29.00;13.38;;;;;;;3.05;100.00;92949.69;4893611;29;20044;-95
2021/12/03 00:07:42;;;;;;;20.80;10.15;;;;;;;3.04;100.00;92954.06;4908424;29;20425;-95
2021/12/03 00:10:10;;;;;;;21.27;9.93;;;;;;;3.10;100.00;92952.28;4909342;29;20032;-95
2021/12/03 00:12:36;;;;;;;16.65;7.18;;;;;;;2.85;100.00;92953.75;4909502;29;20475;-95
2021/12/03 00:15:03;;;;;;;11.45;5.47;;;;;;;2.88;100.00;92955.06;4909043;29;20019;-94
2021/12/03 00:17:29;;;;;;;7.00;3.70;;;;;;;2.70;100.00;92957.06;4908897;29;20028;-94
2021/12/03 00:19:54;;;;;;;8.27;4.00;;;;;;;2.72;100.00;92962.75;4908880;29;20455;-95
2021/12/03 00:22:20;;;;;;;7.30;3.65;;;;;;;2.80;100.00;92969.25;4909107;29;20433;-96
2021/12/03 00:24:45;;;;;;;6.65;3.28;;;;;;;2.81;100.00;92973.41;4924491;29;20471;-94
2021/12/03 00:27:11;;;;;;;6.18;3.20;;;;;;;2.62;100.00;92976.44;4909060;29;20028;-96
2021/12/03 00:29:36;;;;;;;7.60;3.25;;;;;;;2.61;100.00;92987.00;4908927;29;20024;-94
2021/12/03 00:32:02;;;;;;;3.42;2.22;;;;;;;2.60;100.00;92980.28;4908654;29;20035;-95
2021/12/03 00:34:28;;;;;;;6.28;3.08;;;;;;;2.35;100.00;92992.81;4924648;29;20024;-94
2021/12/03 00:36:55;;;;;;;4.65;2.90;;;;;;;2.49;100.00;92990.56;4908909;29;20030;-94
2021/12/03 00:39:21;;;;;;;5.03;3.10;;;;;;;2.51;100.00;92998.09;4908932;29;20029;-96
2021/12/03 00:45:11;;;;;;;5.43;2.72;;;;;;;2.59;100.00;93013.13;4940975;29;20091;-95
2021/12/03 00:47:37;;;;;;;4.95;2.75;;;;;;;2.57;100.00;93007.41;4908436;29;20035;-94
2021/12/03 00:50:04;;;;;;;5.75;2.40;;;;;;;2.48;100.00;93008.94;4924390;29;20341;-95
2021/12/03 00:52:30;;;;;;;4.40;2.60;;;;;;;2.60;100.00;93014.69;4908363;29;20127;-95
2021/12/03 00:54:55;;;;;;;4.22;2.70;;;;;;;2.42;100.00;93013.28;4908403;29;20428;-94
2021/12/03 00:57:20;;;;;;;3.80;2.42;;;;;;;2.32;100.00;93016.59;4908389;29;20035;-95
2021/12/03 00:59:46;;;;;;;4.78;2.95;;;;;;;2.30;100.00;93013.47;4908267;29;20035;-94
2021/12/03 01:02:11;;;;;;;5.85;2.78;;;;;;;2.53;100.00;93022.66;4908183;29;20035;-94
2021/12/03 01:04:37;;;;;;;5.78;2.90;;;;;;;2.38;100.00;93017.41;4908152;29;20055;-94
2021/12/03 01:07:03;;;;;;;6.22;2.92;;;;;;;2.40;100.00;93026.44;4908128;29;20509;-94
2021/12/03 01:09:31;;;;;;;5.72;2.80;;;;;;;2.53;100.00;93024.47;4908014;29;20042;-95
2021/12/03 01:11:57;;;;;;;3.92;2.78;;;;;;;2.60;100.00;93030.22;4908367;29;20051;-95
2021/12/03 01:14:22;;;;;;;4.82;3.10;;;;;;;2.49;100.00;93024.19;4908365;29;20154;-95
2021/12/03 01:16:48;;;;;;;6.53;3.67;;;;;;;2.28;100.00;93028.44;4907887;29;20035;-95
2021/12/03 01:19:13;;;;;;;6.18;3.78;;;;;;;2.32;100.00;93036.47;4907822;29;20058;-94
2021/12/03 01:21:39;;;;;;;7.63;4.10;;;;;;;2.44;100.00;93042.25;4923487;29;20042;-95
2021/12/03 01:24:06;;;;;;;9.95;4.68;;;;;;;2.42;100.00;93043.50;4907967;29;20430;-95
2021/12/03 01:26:33;;;;;;;7.85;4.50;;;;;;;2.54;100.00;93046.69;4907834;29;20515;-95
2021/12/03 01:28:58;;;;;;;9.63;4.80;;;;;;;2.71;100.00;93045.75;4908065;29;20043;-94
2021/12/03 01:31:24;;;;;;;7.43;4.15;;;;;;;2.40;100.00;93048.94;4907766;29;20090;-94
2021/12/03 01:33:50;;;;;;;7.95;4.20;;;;;;;2.25;100.00;93052.19;4923147;29;20067;-96
2021/12/03 01:36:16;;;;;;;8.60;4.85;;;;;;;2.49;100.00;93054.44;4923539;29;20390;-95
2021/12/03 01:38:42;;;;;;;205.75;11.10;;;;;;;2.50;100.00;93050.81;4923395;29;20035;-96
2021/12/03 01:44:29;;;;;;;10.88;5.07;;;;;;;2.38;100.00;93063.94;4939865;29;20094;-95
2021/12/03 01:46:54;;;;;;;79.70;7.45;;;;;;;2.40;100.00;93065.22;4907870;29;20130;-95
2021/12/03 01:49:23;;;;;;;11.82;5.47;;;;;;;2.48;100.00;93066.56;4907509;29;20035;-95
2021/12/03 01:51:48;;;;;;;40.22;6.63;;;;;;;2.66;100.00;93065.41;4907858;29;20183;-93
2021/12/03 01:54:13;;;;;;;20.40;5.43;;;;;;;2.80;100.00;93068.34;4907502;29;20059;-94
2021/12/03 01:56:42;;;;;;;9.43;5.03;;;;;;;2.66;100.00;93078.34;4907747;29;20042;-94
2021/12/03 01:59:07;;;;;;;42.88;6.38;;;;;;;2.34;100.00;93076.56;4922975;29;20442;-94
2021/12/03 02:02:09;;;;;;;8.23;4.40;;;;;;;2.56;100.00;93083.44;4907409;29;20032;-93
2021/12/03 02:04:35;;;;;;;11.63;6.25;;;;;;;2.71;100.00;93084.56;4923082;29;20035;-95
2021/12/03 02:07:01;;;;;;;11.88;6.65;;;;;;;2.73;100.00;93085.13;4907265;29;20028;-95
2021/12/03 02:09:26;;;;;;;11.98;6.30;;;;;;;2.78;100.00;93085.91;4907394;29;20032;-94
2021/12/03 02:11:52;;;;;;;12.60;6.53;;;;;;;2.75;100.00;93088.22;4922891;29;20085;-94
2021/12/03 02:14:18;;;;;;;14.13;7.63;;;;;;;2.86;100.00;93086.47;4907341;29;20024;-96
2021/12/03 02:16:45;;;;;;;12.00;6.70;;;;;;;2.95;100.00;93098.69;4923279;29;20059;-95
2021/12/03 02:19:12;;;;;;;14.68;8.35;;;;;;;2.86;100.00;93089.81;4907596;29;20082;-94
2021/12/03 02:24:59;;;;;;;17.50;9.80;;;;;;;3.14;100.00;93102.66;4939649;29;20058;-95
2021/12/03 02:27:25;;;;;;;17.08;9.10;;;;;;;2.65;100.00;93104.44;4923126;29;20031;-95
2021/12/03 02:29:50;;;;;;;21.00;11.23;;;;;;;2.46;100.00;93104.81;4907923;29;20038;-94
2021/12/03 02:32:16;;;;;;;15.90;8.55;;;;;;;2.44;100.00;93116.44;4910788;29;20153;-95
2021/12/03 02:34:41;;;;;;;138.88;11.82;;;;;;;2.60;100.00;93125.88;4911398;29;20122;-95
2021/12/03 02:37:07;;;;;;;19.88;9.63;;;;;;;2.81;100.00;93116.47;4910724;29;20027;-95
2021/12/03 02:39:32;;;;;;;22.63;10.40;;;;;;;2.87;100.00;93126.84;4910752;29;20126;-94
2021/12/03 02:41:58;;;;;;;33.03;12.30;;;;;;;2.86;100.00;93127.84;4910695;29;20027;-94
2021/12/03 02:44:23;;;;;;;25.38;13.02;;;;;;;2.91;100.00;93127.88;4910736;29;20067;-95
2021/12/03 02:46:49;;;;;;;152.32;15.18;;;;;;;2.56;100.00;93126.63;4926503;29;20433;-95
2021/12/03 02:49:15;;;;;;;28.60;13.70;;;;;;;2.46;100.00;93135.84;4926255;29;20433;-94
2021/12/03 02:51:42;;;;;;;29.98;14.15;;;;;;;2.67;100.00;93134.19;4910771;29;20038;-95
2021/12/03 02:54:08;;;;;;;40.92;17.85;;;;;;;2.41;100.00;93135.81;4926232;29;20028;-95
2021/12/03 02:56:33;;;;;;;43.60;18.60;;;;;;;2.52;100.00;93139.25;4910627;29;20035;-95
2021/12/03 02:58:59;;;;;;;48.50;21.00;;;;;;;2.50;100.00;93134.31;4910360;29;20086;-95
2021/12/03 03:01:24;;;;;;;40.03;17.67;;;;;;;2.69;100.00;93147.66;4910468;29;20031;-95
2021/12/03 03:03:50;;;;;;;40.22;18.55;;;;;;;2.34;100.00;93148.94;4925947;29;20031;-95
2021/12/03 03:06:15;;;;;;;40.75;18.33;;;;;;;2.55;100.00;93154.28;4926138;29;20130;-95
2021/12/03 03:08:43;;;;;;;45.00;21.08;;;;;;;2.67;100.00;93160.06;4910586;29;20039;-95
2021/12/03 03:11:09;;;;;;;41.40;18.73;;;;;;;2.74;100.00;93161.69;4910600;29;20377;-95
2021/12/03 03:13:35;;;;;;;43.72;20.10;;;;;;;2.80;100.00;93173.59;4910196;29;20031;-95
2021/12/03 03:16:01;;;;;;;42.72;18.77;;;;;;;2.52;100.00;93170.28;4909988;29;20086;-95
2021/12/03 03:18:28;;;;;;;57.47;23.65;;;;;;;2.64;100.00;93181.25;4910489;29;20126;-95
2021/12/03 03:20:58;;;;;;;55.70;23.05;;;;;;;2.38;100.00;93191.38;4926143;29;20453;-94
2021/12/03 03:23:23;;;;;;;70.28;25.73;;;;;;;2.28;100.00;93196.44;4909813;29;20034;-95
2021/12/03 03:25:50;;;;;;;67.78;24.90;;;;;;;2.26;100.00;93199.28;4910394;29;20032;-94
2021/12/03 03:28:16;;;;;;;66.70;25.65;;;;;;;2.30;100.00;93207.34;4909947;29;20430;-95
2021/12/03 03:30:44;;;;;;;75.68;27.48;;;;;;;2.26;100.00;93211.41;4909825;29;20488;-95
2021/12/03 03:33:10;;;;;;;67.50;25.50;;;;;;;2.22;100.00;93207.75;4909987;29;20023;-95
2021/12/03 03:35:35;;;;;;;66.28;25.15;;;;;;;2.38;100.00;93222.38;4910007;29;20043;-95
2021/12/03 03:38:01;;;;;;;64.75;25.27;;;;;;;2.34;100.00;93218.75;4910120;29;20047;-94
2021/12/03 03:40:27;;;;;;;54.08;21.48;;;;;;;2.31;100.00;93229.56;4909922;29;20101;-94
2021/12/03 03:42:53;;;;;;;49.00;20.80;;;;;;;2.51;100.00;93230.78;4908382;29;20039;-94
2021/12/03 03:45:20;;;;;;;51.72;20.33;;;;;;;2.29;100.00;93226.41;4909463;29;20032;-94
2021/12/03 03:47:46;;;;;;;48.67;19.58;;;;;;;2.60;100.00;93242.25;4909518;29;20457;-95
2021/12/03 03:50:14;;;;;;;45.65;19.35;;;;;;;2.54;100.00;93251.78;4925450;29;20031;-95
2021/12/03 03:52:40;;;;;;;48.58;20.33;;;;;;;2.57;100.00;93260.81;4909654;29;20104;-95
2021/12/03 03:55:10;;;;;;;51.28;20.80;;;;;;;2.52;100.00;93265.97;4909625;29;20038;-94
2021/12/03 03:57:36;;;;;;;43.30;18.50;;;;;;;2.63;100.00;93280.56;4925413;29;20055;-95
2021/12/03 04:00:04;;;;;;;47.47;22.33;;;;;;;2.39;100.00;93286.00;4925126;29;20083;-94
2021/12/03 04:02:29;;;;;;;40.78;19.52;;;;;;;2.40;100.00;93290.13;4909135;29;20035;-94
2021/12/03 04:04:55;;;;;;;51.67;25.45;;;;;;;2.50;100.00;93291.28;4909367;29;20050;-95
2021/12/03 04:07:20;;;;;;;55.13;28.13;;;;;;;2.36;100.00;93296.03;4909131;29;20416;-95
2021/12/03 04:09:46;;;;;;;57.05;28.45;;;;;;;2.32;100.00;93295.75;4909544;29;20037;-94
2021/12/03 04:12:11;;;;;;;46.03;24.52;;;;;;;2.23;100.00;93297.19;4925046;29;20030;-95
2021/12/03 04:14:37;;;;;;;41.55;21.77;;;;;;;2.45;100.00;93301.56;4909063;29;20028;-95
2021/12/03 04:17:02;;;;;;;34.95;19.35;;;;;;;2.37;100.00;93308.72;4924980;29;20082;-95
2021/12/03 04:19:29;;;;;;;37.58;19.70;;;;;;;2.36;100.00;93304.56;4909026;29;20129;-95
2021/12/03 04:21:55;;;;;;;33.63;18.88;;;;;;;2.39;100.00;93305.91;4909084;29;20031;-94
2021/12/03 04:24:21;;;;;;;29.88;17.83;;;;;;;2.35;100.00;93310.78;4908680;29;20035;-95
2021/12/03 04:26:46;;;;;;;31.23;17.00;;;;;;;2.47;100.00;93309.88;4908964;29;20031;-93
2021/12/03 04:29:11;;;;;;;27.17;15.82;;;;;;;2.53;100.00;93325.19;4908810;29;20031;-94
2021/12/03 04:31:37;;;;;;;26.73;14.73;;;;;;;2.43;100.00;93326.88;4909047;29;20045;-94
2021/12/03 04:34:03;;;;;;;26.65;13.52;;;;;;;2.31;100.00;93327.78;4908678;29;20114;-94
2021/12/03 04:36:28;;;;;;;18.00;10.80;;;;;;;2.28;100.00;93330.84;4924266;29;20038;-94
2021/12/03 04:38:54;;;;;;;19.60;11.20;;;;;;;2.12;100.00;93335.06;4908725;29;20429;-95
2021/12/03 04:41:19;;;;;;;22.02;12.93;;;;;;;2.14;100.00;93335.59;4924463;29;20027;-93
2021/12/03 04:43:45;;;;;;;15.32;9.68;;;;;;;2.15;100.00;93339.75;4924257;29;20378;-93
2021/12/03 04:46:10;;;;;;;14.85;9.85;;;;;;;2.23;100.00;93348.88;4908455;29;20035;-95
2021/12/03 04:48:36;;;;;;;15.35;9.57;;;;;;;2.12;100.00;93342.81;4908420;29;20353;-95
2021/12/03 04:51:02;;;;;;;16.38;10.27;;;;;;;2.29;100.00;93345.31;4908365;29;20082;-94
2021/12/03 04:53:27;;;;;;;13.07;8.40;;;;;;;2.13;100.00;93344.38;4908330;29;20477;-93
2021/12/03 04:55:53;;;;;;;12.38;8.38;;;;;;;2.30;100.00;93348.69;4908224;29;20054;-95
2021/12/03 04:58:19;;;;;;;11.55;8.02;;;;;;;2.23;100.00;93354.03;4924034;29;20032;-94
2021/12/03 05:00:51;;;;;;;12.55;7.93;;;;;;;2.02;100.00;93355.59;4908457;29;20422;-95
2021/12/03 05:03:17;;;;;;;12.43;7.72;;;;;;;2.14;100.00;93347.72;4923911;29;20345;-95
2021/12/03 05:05:52;;;;;;;10.23;6.72;;;;;;;1.95;100.00;93353.16;4908430;29;20039;-93
2021/12/03 05:08:18;;;;;;;9.98;6.75;;;;;;;2.15;100.00;93359.63;4909274;29;20032;-94
2021/12/03 05:10:48;;;;;;;9.65;6.20;;;;;;;2.11;100.00;93361.91;4923883;29;20035;-94
2021/12/03 05:13:22;;;;;;;10.40;6.45;;;;;;;2.22;100.00;93361.03;4908370;29;20031;-93
2021/12/03 05:15:47;;;;;;;;;;;;;;;2.24;100.00;93363.38;4908802;29;20035;-94
2021/12/03 05:18:15;;;;;;;9.40;5.93;;;;;;;2.24;100.00;93371.13;4923532;29;20005;-94
2021/12/03 05:20:42;;;;;;;6.15;3.90;;;;;;;2.16;100.00;93379.28;4907887;29;20032;-95
2021/12/03 05:23:09;;;;;;;5.72;3.33;;;;;;;2.18;100.00;93383.19;4907712;29;20405;-94
2021/12/03 05:25:35;;;;;;;5.13;3.50;;;;;;;2.18;100.00;93387.59;4923520;29;20032;-93
2021/12/03 05:28:00;;;;;;;6.15;3.97;;;;;;;2.02;100.00;93397.72;4907961;29;20042;-94
2021/12/03 05:30:26;;;;;;;5.97;3.42;;;;;;;1.96;100.00;93394.28;4907737;29;20046;-93
2021/12/03 05:32:52;;;;;;;4.32;2.83;;;;;;;2.18;100.00;93397.94;4923434;29;20032;-93
2021/12/03 05:35:18;;;;;;;5.13;3.25;;;;;;;2.02;100.00;93404.69;4907662;29;20067;-95
2021/12/03 05:37:43;;;;;;;6.40;3.53;;;;;;;1.96;100.00;93421.91;4907910;29;20063;-93
2021/12/03 05:40:11;;;;;;;5.20;3.35;;;;;;;1.80;100.00;93428.66;4907620;29;20043;-93
2021/12/03 05:42:38;;;;;;;5.78;3.30;;;;;;;1.77;100.00;93437.66;4923265;29;20043;-94
2021/12/03 05:45:05;;;;;;;4.57;2.70;;;;;;;1.74;100.00;93438.13;4907607;29;20113;-91
2021/12/03 05:47:31;;;;;;;5.80;3.00;;;;;;;1.73;100.00;93440.94;4907388;29;20042;-94
2021/12/03 05:49:56;;;;;;;4.88;3.05;;;;;;;1.83;100.00;93451.44;4907821;29;20434;-93
2021/12/03 05:52:22;;;;;;;5.43;3.10;;;;;;;1.70;100.00;93449.91;4907873;29;20059;-94
2021/12/03 05:54:47;;;;;;;5.07;3.28;;;;;;;1.57;100.00;93471.69;4907778;29;20036;-93
2021/12/03 05:57:13;;;;;;;4.50;2.90;;;;;;;1.61;100.00;93469.41;4924949;29;20036;-92
2021/12/03 05:59:38;;;;;;;5.28;2.97;;;;;;;1.57;100.00;93476.03;4907331;29;20032;-94
2021/12/03 06:02:04;;;;;;;4.20;3.00;;;;;;;1.51;100.00;93472.63;4907348;29;20508;-93
2021/12/03 06:04:30;;;;;;;5.22;3.45;;;;;;;1.63;100.00;93477.72;4907257;29;20031;-93
2021/12/03 06:06:56;;;;;;;7.30;4.30;;;;;;;1.63;100.00;93485.44;4942760;29;20036;-94
2021/12/03 06:09:21;;;;;;;6.55;3.60;;;;;;;1.59;100.00;93489.53;4911410;29;20042;-93
2021/12/03 06:15:09;;;;;;;6.60;3.83;;;;;;;1.55;100.00;93500.28;4943675;29;20452;-94
2021/12/03 06:17:34;;;;;;;6.93;3.28;;;;;;;1.67;100.00;93502.84;4911172;29;20031;-93
2021/12/03 06:20:00;;;;;;;4.97;3.30;;;;;;;1.67;100.00;93499.47;4911549;29;20497;-93
2021/12/03 06:22:25;;;;;;;4.03;2.58;;;;;;;1.54;100.00;93509.06;4911396;29;20342;-94
2021/12/03 06:24:51;;;;;;;6.95;3.78;;;;;;;1.51;100.00;93509.53;4910986;29;20430;-94
2021/12/03 06:27:16;;;;;;;4.07;2.75;;;;;;;1.57;100.00;93512.97;4942169;29;20050;-93
2021/12/03 06:29:42;;;;;;;4.82;3.20;;;;;;;1.59;100.00;93520.50;4910893;29;20102;-93
2021/12/03 06:32:09;;;;;;;3.75;2.53;;;;;;;1.34;100.00;93529.34;4926659;29;20039;-93
2021/12/03 06:34:38;;;;;;;2.97;2.00;;;;;;;1.41;100.00;93530.78;4911052;29;20030;-93
2021/12/03 06:37:04;;;;;;;3.28;2.25;;;;;;;1.45;100.00;93545.81;4910946;29;20105;-93
2021/12/03 06:39:29;;;;;;;5.85;2.70;;;;;;;1.59;100.00;93547.09;4911024;29;20031;-93
2021/12/03 06:41:55;;;;;;;3.35;2.25;;;;;;;1.42;100.00;93541.88;4910624;29;20035;-93
2021/12/03 06:44:20;;;;;;;5.78;2.78;;;;;;;1.54;100.00;93557.34;4910773;29;20038;-94
2021/12/03 06:46:46;;;;;;;4.43;2.80;;;;;;;1.52;100.00;93567.13;4910695;29;20031;-94
2021/12/03 06:49:11;;;;;;;5.80;3.42;;;;;;;1.33;100.00;93571.66;4910759;29;20079;-94
2021/12/03 06:51:41;;;;;;;4.30;3.00;;;;;;;1.41;100.00;93574.66;4926012;29;20039;-94
2021/12/03 06:54:09;;;;;;;5.40;3.40;;;;;;;1.44;100.00;93578.59;4910868;29;20047;-93
2021/12/03 06:56:48;;;;;;;6.60;3.50;;;;;;;1.27;100.00;93587.03;4910612;29;20122;-94
2021/12/03 06:59:15;;;;;;;4.85;2.80;;;;;;;1.21;100.00;93600.84;4912512;29;20032;-93
2021/12/03 07:01:40;;;;;;;5.18;3.35;;;;;;;1.26;100.00;93595.00;4919848;29;20337;-93
2021/12/03 07:04:08;;;;;;;5.15;2.33;;;;;;;1.27;100.00;93599.94;4910659;29;20130;-94
2021/12/03 07:06:34;;;;;;;5.13;2.97;;;;;;;1.29;100.00;93609.25;4910255;29;20027;-93
2021/12/03 07:09:03;;;;;;;6.80;4.32;;;;;;;1.44;100.00;93622.47;4922775;29;20068;-94
2021/12/03 07:11:29;;;;;;;7.10;3.45;;;;;;;1.42;100.00;93634.81;4907050;29;20028;-93
2021/12/03 07:13:55;;;;;;;5.55;3.47;;;;;;;1.24;100.00;93639.09;4909979;29;20035;-93
2021/12/03 07:16:20;;;;;;;8.18;5.07;;;;;;;1.33;100.00;93651.66;4910176;29;20027;-93
2021/12/03 07:18:46;;;;;;;6.47;4.30;;;;;;;1.27;100.00;93655.94;4910043;29;20433;-94
2021/12/03 07:21:24;;;;;;;6.97;4.32;;;;;;;1.34;100.00;93650.66;4909729;29;20029;-93
2021/12/03 07:23:51;;;;;;;8.55;5.32;;;;;;;1.50;100.00;93656.91;4909783;29;20066;-94
2021/12/03 07:26:17;;;;;;;8.82;4.72;;;;;;;1.47;100.00;93657.34;4909640;29;20508;-92
2021/12/03 07:28:43;;;;;;;9.57;4.70;;;;;;;1.50;100.00;93667.22;4909927;29;20035;-93
2021/12/03 07:31:09;;;;;;;7.30;4.40;;;;;;;1.55;100.00;93669.94;4910157;29;20058;-92
2021/12/03 07:33:35;;;;;;;6.90;4.28;;;;;;;1.63;100.00;93679.13;4925545;29;20136;-94
2021/12/03 07:36:01;;;;;;;7.32;4.20;;;;;;;1.57;100.00;93683.41;4909660;29;20031;-92
2021/12/03 07:38:26;;;;;;;7.60;4.07;;;;;;;1.71;100.00;93683.91;4925368;29;20039;-93
2021/12/03 07:40:52;;;;;;;8.95;4.72;;;;;;;1.73;100.00;93697.41;4909759;29;20039;-93
2021/12/03 07:43:18;;;;;;;9.40;5.07;;;;;;;1.88;100.00;93702.06;4925022;29;20036;-93
2021/12/03 07:45:45;;;;;;;7.35;4.25;;;;;;;1.77;100.00;93695.13;4925276;29;20130;-93
2021/12/03 07:48:11;;;;;;;11.27;3.72;;;;;;;1.83;100.00;93697.59;4909438;29;20082;-93
2021/12/03 07:50:39;;;;;;;10.43;4.45;;;;;;;1.79;100.00;93704.22;4909423;29;20433;-93
2021/12/03 07:53:05;;;;;;;8.77;4.70;;;;;;;1.91;100.00;93708.59;4909652;29;20118;-93
2021/12/03 07:55:30;;;;;;;7.22;3.95;;;;;;;1.84;100.00;93714.66;4925078;29;20063;-92
2021/12/03 07:57:56;;;;;;;6.32;4.07;;;;;;;1.73;100.00;93723.25;4909493;29;20081;-93
2021/12/03 08:00:22;;;;;;;6.63;3.22;;;;;;;1.93;100.00;93737.56;4924856;29;20036;-93
2021/12/03 08:02:48;;;;;;;4.90;3.08;;;;;;;1.92;100.00;93736.00;4909291;29;20093;-92
2021/12/03 08:05:14;;;;;;;5.28;3.20;;;;;;;1.90;100.00;93743.97;4909209;29;20039;-93
2021/12/03 08:07:45;;;;;;;6.20;3.30;;;;;;;1.89;100.00;93746.78;4909136;29;20032;-93
2021/12/03 08:10:11;;;;;;;5.82;3.45;;;;;;;2.06;100.00;93746.84;4909721;29;20429;-93
2021/12/03 08:12:39;;;;;;;6.45;3.20;;;;;;;1.91;100.00;93749.94;4908917;29;20349;-93
2021/12/03 08:15:05;;;;;;;4.47;2.70;;;;;;;1.92;100.00;93770.34;4908920;29;20028;-93
2021/12/03 08:17:30;;;;;;;4.45;3.08;;;;;;;1.93;100.00;93768.56;4924504;29;20526;-92
2021/12/03 08:19:56;;;;;;;3.78;2.38;;;;;;;2.02;100.00;93772.38;4908845;29;20031;-93
2021/12/03 08:22:21;;;;;;;4.50;2.83;;;;;;;2.00;100.00;93782.13;4924452;29;20082;-92
2021/12/03 08:24:47;;;;;;;6.00;2.63;;;;;;;1.76;100.00;93779.59;4908862;29;20047;-92
2021/12/03 08:27:12;;;;;;;8.23;3.65;;;;;;;1.97;100.00;93785.19;4908392;29;20473;-93
2021/12/03 08:29:38;;;;;;;4.45;2.75;;;;;;;1.97;100.00;93785.97;4908343;29;20134;-93
2021/12/03 08:32:04;;;;;;;5.47;2.85;;;;;;;1.96;100.00;93794.75;4908682;29;20024;-92
2021/12/03 08:34:29;;;;;;;4.38;2.92;;;;;;;1.99;100.00;93788.31;4924150;29;20449;-93
2021/12/03 08:36:55;;;;;;;3.40;2.22;;;;;;;2.11;100.00;93791.66;4908449;29;20028;-92
2021/12/03 08:39:20;;;;;;;3.80;2.15;;;;;;;2.24;100.00;93790.63;4908442;29;20032;-92
2021/12/03 08:41:46;;;;;;;3.33;2.30;;;;;;;2.19;100.00;93794.94;4924168;29;20115;-93
2021/12/03 08:44:11;;;;;;;3.42;2.50;;;;;;;2.38;100.00;93791.16;4908312;29;20027;-91
2021/12/03 08:46:38;;;;;;;4.03;2.30;;;;;;;2.43;100.00;93792.25;4939858;29;20429;-92
2021/12/03 08:51:55;;;;;;;3.03;2.08;;;;;;;2.49;100.00;93794.72;4926429;29;20070;-93
2021/12/03 08:57:05;;;;;;;3.20;2.28;;;;;;;2.82;100.00;93803.59;4926415;29;20078;-93
2021/12/03 08:59:30;;;;;;;2.28;1.80;;;;;;;2.81;100.00;93812.38;4908119;29;20059;-93
2021/12/03 09:01:56;;;;;;;3.25;1.80;;;;;;;2.68;100.00;93810.06;4923697;29;20094;-94
2021/12/03 09:04:23;;;;;;;4.47;2.40;;;;;;;2.81;100.00;93819.34;4907979;29;20027;-93
2021/12/03 09:06:49;;;;;;;3.22;2.13;;;;;;;2.59;100.00;93820.00;4907883;29;20039;-93
2021/12/03 09:09:14;;;;;;;3.25;2.10;;;;;;;2.83;100.00;93827.66;4907942;29;20038;-93
2021/12/03 09:11:40;;;;;;;2.95;1.98;;;;;;;2.74;100.00;93824.66;4907798;29;20075;-93
2021/12/03 09:14:15;;;;;;;2.60;1.90;;;;;;;2.71;100.00;93835.47;4907610;29;20024;-93
2021/12/03 09:16:41;;;;;;;2.97;2.00;;;;;;;2.70;100.00;93841.66;4907241;29;20424;-94
2021/12/03 09:19:15;;;;;;;3.65;2.28;;;;;;;2.80;100.00;93839.25;4923459;29;20036;-92
2021/12/03 09:21:40;;;;;;;3.15;2.22;;;;;;;2.97;100.00;93851.47;4908761;29;20027;-94
2021/12/03 09:24:10;;;;;;;4.70;2.25;;;;;;;2.81;100.00;93852.97;4920040;29;20027;-92
2021/12/03 09:26:39;;;;;;;3.08;2.40;;;;;;;2.73;100.00;93866.28;4923134;29;20028;-91
2021/12/03 09:29:10;;;;;;;3.40;2.28;;;;;;;3.18;100.00;93870.72;4922451;29;20381;-94
2021/12/03 09:31:37;;;;;;;3.95;2.85;;;;;;;2.90;100.00;93874.09;4908012;29;20071;-93
2021/12/03 09:34:09;;;;;;;4.70;2.88;;;;;;;3.03;100.00;93867.88;4907788;29;20020;-94
2021/12/03 09:36:37;;;;;;;4.13;2.65;;;;;;;3.10;100.00;93879.66;4924010;29;20027;-93
2021/12/03 09:39:04;;;;;;;4.13;2.53;;;;;;;3.40;100.00;93875.22;4907729;29;20091;-92
2021/12/03 09:41:30;;;;;;;3.13;2.30;;;;;;;3.62;100.00;93877.13;4923273;29;20031;-93
2021/12/03 09:43:55;;;;;;;3.78;2.60;;;;;;;3.52;100.00;93883.69;4907297;29;20408;-93
2021/12/03 09:46:23;;;;;;;3.63;2.70;;;;;;;3.20;100.00;93884.22;4907369;29;20035;-93
2021/12/03 09:51:35;;;;;;;2.75;2.38;;;;;;;3.29;100.00;93882.03;4924704;29;20024;-92
2021/12/03 09:56:33;;;;;;;3.67;2.75;;;;;;;2.81;100.00;93876.25;4923741;29;20031;-93
2021/12/03 10:15:33;;;;;;;5.45;4.10;;;;;;;3.34;100.00;93896.88;4925510;29;20028;-93
2021/12/03 10:18:05;;;;;;;8.20;4.90;;;;;;;2.90;100.00;93895.59;4909399;29;20036;-93
2021/12/03 10:28:40;;;;;;;6.88;4.68;;;;;;;3.36;100.00;93898.19;4925287;29;20062;-93
2021/12/03 10:39:23;;;;;;;9.40;5.88;;;;;;;2.90;100.00;93911.13;4923866;29;20038;-94
2021/12/03 10:42:08;;;;;;;7.50;5.53;;;;;;;2.92;100.00;93909.06;4908296;29;20071;-93
2021/12/03 10:44:57;;;;;;;10.57;8.00;;;;;;;2.67;100.00;93912.72;4909092;29;20036;-94
2021/12/03 11:04:16;;;;;;;11.30;7.30;;;;;;;2.59;100.00;93923.44;4928375;29;20087;-93
2021/12/03 11:06:45;;;;;;;24.88;20.13;;;;;;;2.77;100.00;93924.31;4928780;29;20082;-94
2021/12/03 11:54:40;;;;;;;3.47;2.40;;;;;;;3.33;100.00;93928.97;4925818;29;20045;-93
2021/12/03 12:42:09;;;;;;;51.35;16.35;;;;;;;3.43;100.00;93916.19;4926790;29;20039;-94
2021/12/03 13:12:09;;;;;;;;;;;;;;;4.06;100.00;93905.78;4926963;29;20044;-94
2021/12/03 14:07:52;;;;;;;6.45;1.17;;;;;;;3.48;100.00;93912.88;4925050;29;20066;-93
2021/12/03 14:55:47;;;;;;;4.03;1.83;;;;;;;3.53;100.00;93968.16;4927921;29;20039;-94
2021/12/03 14:58:20;;;;;;;4.53;2.45;;;;;;;3.46;100.00;93970.13;4911211;29;20055;-93
2021/12/03 15:00:57;;;;;;;3.75;1.83;;;;;;;3.53;100.00;93975.16;4911766;29;20032;-96
2021/12/03 15:09:00;;;;;;;3.28;1.90;;;;;;;3.32;100.00;93981.78;4926651;29;20322;-94
2021/12/03 15:27:32;;;;;;;3.92;2.00;;;;;;;2.58;100.00;93994.28;4927502;29;20027;-89
2021/12/03 15:35:21;;;;;;;3.85;1.60;;;;;;;2.85;100.00;94016.31;4926491;29;20038;-89
2021/12/03 16:04:33;;;;;;;3.50;1.90;;;;;;;1.66;100.00;94001.47;4926748;29;20484;-91
2021/12/03 16:09:55;;;;;;;3.92;1.70;;;;;;;1.30;100.00;94008.31;4925059;29;20038;-90
2021/12/03 16:15:29;;;;;;;2.65;1.60;;;;;;;1.27;100.00;94006.94;4924738;29;20083;-91
2021/12/03 16:17:57;;;;;;;3.42;1.80;;;;;;;1.12;100.00;94008.09;4925720;29;20039;-91
2021/12/03 16:47:15;;;;;;;4.70;2.38;;;;;;;0.78;100.00;94032.69;4924129;29;20035;-92
2021/12/03 16:52:32;;;;;;;9.52;4.80;;;;;;;0.54;100.00;94032.50;4925972;29;20094;-91
2021/12/03 16:54:59;;;;;;;9.20;4.53;;;;;;;0.50;100.00;94024.44;4909403;29;20060;-92
2021/12/03 16:57:32;;;;;;;3.60;2.50;;;;;;;0.50;100.00;94029.56;4908061;29;20058;-92
2021/12/03 17:00:00;;;;;;;6.22;2.80;;;;;;;0.49;100.00;94016.88;4924527;29;20400;-91
2021/12/03 17:02:39;;;;;;;6.55;2.80;;;;;;;0.48;100.00;94028.19;4923777;29;20062;-91
2021/12/03 17:16:58;;;;;;;5.63;2.72;;;;;;;0.57;100.00;94068.16;4928722;29;20167;-92
2021/12/03 17:19:23;;;;;;;7.07;2.60;;;;;;;0.57;100.00;94073.31;4931640;29;20357;-92
2021/12/03 17:51:44;;;;;;;15.50;6.15;;;;;;;0.06;100.00;94103.44;4933193;29;20043;-92
2021/12/03 17:57:02;;;;;;;;;;;;;;;0.08;100.00;94119.50;4925934;29;20028;-91
2021/12/03 17:59:37;;;;;;;16.38;8.48;;;;;;;0.11;100.00;94111.34;4937812;29;19945;-92
2021/12/03 18:51:17;;;;;;;8.98;5.18;;;;;;;-0.19;100.00;94135.84;4924358;29;20035;-92
2021/12/03 18:56:18;;;;;;;11.75;5.40;;;;;;;-0.08;100.00;94149.09;4922583;29;20028;-91
2021/12/03 18:58:44;;;;;;;11.07;6.07;;;;;;;-0.08;100.00;94146.50;4908001;29;20426;-92
2021/12/03 19:01:12;;;;;;;10.65;5.63;;;;;;;0.03;100.00;94143.28;4922406;29;20074;-92
2021/12/03 19:04:06;;;;;;;11.52;4.60;;;;;;;0.02;100.00;94146.88;4922676;29;20063;-92
2021/12/03 19:06:37;;;;;;;13.77;5.43;;;;;;;-0.27;100.00;94148.19;4910419;29;20035;-93
2021/12/03 19:09:10;;;;;;;10.38;5.28;;;;;;;-0.36;100.00;94157.91;4907483;29;20358;-92
2021/12/03 19:11:53;;;;;;;8.15;4.82;;;;;;;-0.36;100.00;94155.34;4907731;29;20126;-92
2021/12/03 19:14:20;;;;;;;12.00;6.93;;;;;;;-0.35;100.00;94160.31;4912505;29;20054;-93
2021/12/03 19:16:46;;;;;;;26.75;13.38;;;;;;;-0.30;100.00;94157.09;4941913;29;20027;-93
2021/12/03 19:19:14;;;;;;;67.75;29.95;;;;;;;-0.37;100.00;94164.84;4910661;29;20054;-92
2021/12/03 19:21:40;;;;;;;143.75;52.28;;;;;;;-0.40;100.00;94170.41;4910274;29;20036;-92
2021/12/03 19:24:08;;;;;;;108.72;40.90;;;;;;;-0.47;100.00;94183.28;4925333;29;20127;-92